sensor_id;sensor_type;location;lat;lon;timestamp;temperature;humidity
15991;DHT22;8100;50.994;4.538;2023-07-16T00:00:35;15.80;99.90
15991;DHT22;8100;50.994;4.538;2023-07-16T00:03:22;15.70;99.90
15991;DHT22;8100;50.994;4.538;2023-07-16T00:06:11;15.80;99.90
15991;DHT22;8100;50.994;4.538;2023-07-16T00:08:59;15.80;99.90
15991;DHT22;8100;50.994;4.538;2023-07-16T00:11:46;15.70;99.90
15991;DHT22;8100;50.994;4.538;2023-07-16T00:14:33;15.70;99.90
15991;DHT22;8100;50.994;4.538;2023-07-16T00:17:20;15.70;99.90
15991;DHT22;8100;50.994;4.538;2023-07-16T00:20:08;15.40;99.90
15991;DHT22;8100;50.994;4.538;2023-07-16T00:22:57;15.50;99.90
15991;DHT22;8100;50.994;4.538;2023-07-16T00:25:45;15.80;99.90
15991;DHT22;8100;50.994;4.538;2023-07-16T00:28:32;15.40;99.90
15991;DHT22;8100;50.994;4.538;2023-07-16T00:31:19;15.70;99.90
15991;DHT22;8100;50.994;4.538;2023-07-16T00:34:06;15.50;99.90
15991;DHT22;8100;50.994;4.538;2023-07-16T00:36:53;15.30;99.90
15991;DHT22;8100;50.994;4.538;2023-07-16T00:39:48;15.40;99.90
15991;DHT22;8100;50.994;4.538;2023-07-16T00:42:35;15.40;99.90
15991;DHT22;8100;50.994;4.538;2023-07-16T00:45:23;15.40;99.90
15991;DHT22;8100;50.994;4.538;2023-07-16T00:48:10;15.40;99.90
15991;DHT22;8100;50.994;4.538;2023-07-16T00:51:00;15.30;99.90
15991;DHT22;8100;50.994;4.538;2023-07-16T00:53:48;15.20;99.90
15991;DHT22;8100;50.994;4.538;2023-07-16T00:56:37;15.00;99.90
15991;DHT22;8100;50.994;4.538;2023-07-16T00:59:25;15.30;99.90
15991;DHT22;8100;50.994;4.538;2023-07-16T01:02:12;15.30;99.90
15991;DHT22;8100;50.994;4.538;2023-07-16T01:04:59;15.10;99.90
15991;DHT22;8100;50.994;4.538;2023-07-16T01:07:55;15.00;99.90
15991;DHT22;8100;50.994;4.538;2023-07-16T01:10:45;15.30;99.90
15991;DHT22;8100;50.994;4.538;2023-07-16T01:13:34;15.10;99.90
15991;DHT22;8100;50.994;4.538;2023-07-16T01:16:23;15.20;99.90
15991;DHT22;8100;50.994;4.538;2023-07-16T01:19:11;15.00;99.90
15991;DHT22;8100;50.994;4.538;2023-07-16T01:22:16;14.80;99.90
15991;DHT22;8100;50.994;4.538;2023-07-16T01:25:35;14.90;99.90
15991;DHT22;8100;50.994;4.538;2023-07-16T01:28:44;14.90;99.90
15991;DHT22;8100;50.994;4.538;2023-07-16T01:31:37;15.00;99.90
15991;DHT22;8100;50.994;4.538;2023-07-16T01:34:28;15.10;99.90
15991;DHT22;8100;50.994;4.538;2023-07-16T01:37:16;15.20;99.90
15991;DHT22;8100;50.994;4.538;2023-07-16T01:40:07;15.00;99.90
15991;DHT22;8100;50.994;4.538;2023-07-16T01:42:54;14.90;99.90
15991;DHT22;8100;50.994;4.538;2023-07-16T01:45:42;15.10;99.90
15991;DHT22;8100;50.994;4.538;2023-07-16T01:48:33;15.40;99.90
15991;DHT22;8100;50.994;4.538;2023-07-16T01:51:20;15.40;99.90
15991;DHT22;8100;50.994;4.538;2023-07-16T01:54:07;15.40;99.90
15991;DHT22;8100;50.994;4.538;2023-07-16T01:56:55;15.30;99.90
15991;DHT22;8100;50.994;4.538;2023-07-16T01:59:42;15.30;99.90
15991;DHT22;8100;50.994;4.538;2023-07-16T02:02:29;15.40;99.90
15991;DHT22;8100;50.994;4.538;2023-07-16T02:05:18;15.40;99.90
15991;DHT22;8100;50.994;4.538;2023-07-16T02:08:05;15.30;99.90
15991;DHT22;8100;50.994;4.538;2023-07-16T02:10:52;15.40;99.90
15991;DHT22;8100;50.994;4.538;2023-07-16T02:13:39;15.30;60.90
15991;DHT22;8100;50.994;4.538;2023-07-16T02:16:26;15.40;49.00
15991;DHT22;8100;50.994;4.538;2023-07-16T02:19:14;15.30;73.60
15991;DHT22;8100;50.994;4.538;2023-07-16T02:22:02;15.20;97.30
15991;DHT22;8100;50.994;4.538;2023-07-16T02:24:50;15.00;99.90
15991;DHT22;8100;50.994;4.538;2023-07-16T02:27:37;14.90;99.90
15991;DHT22;8100;50.994;4.538;2023-07-16T02:30:24;14.90;99.90
15991;DHT22;8100;50.994;4.538;2023-07-16T02:33:11;14.70;99.90
15991;DHT22;8100;50.994;4.538;2023-07-16T02:35:58;14.60;99.90
15991;DHT22;8100;50.994;4.538;2023-07-16T02:38:47;14.50;99.90
15991;DHT22;8100;50.994;4.538;2023-07-16T02:41:34;14.50;99.90
15991;DHT22;8100;50.994;4.538;2023-07-16T02:44:21;14.50;99.90
15991;DHT22;8100;50.994;4.538;2023-07-16T02:47:09;14.80;96.00
15991;DHT22;8100;50.994;4.538;2023-07-16T02:49:56;15.00;4.20
15991;DHT22;8100;50.994;4.538;2023-07-16T02:52:43;15.10;18.30
15991;DHT22;8100;50.994;4.538;2023-07-16T02:55:32;15.10;1.00
15991;DHT22;8100;50.994;4.538;2023-07-16T02:58:19;15.00;1.00
15991;DHT22;8100;50.994;4.538;2023-07-16T03:01:06;15.10;1.00
15991;DHT22;8100;50.994;4.538;2023-07-16T03:03:53;15.10;1.00
15991;DHT22;8100;50.994;4.538;2023-07-16T03:06:41;15.20;1.00
15991;DHT22;8100;50.994;4.538;2023-07-16T03:09:28;15.20;1.00
15991;DHT22;8100;50.994;4.538;2023-07-16T03:12:16;15.30;1.00
15991;DHT22;8100;50.994;4.538;2023-07-16T03:15:04;15.30;1.00
15991;DHT22;8100;50.994;4.538;2023-07-16T03:17:52;15.30;1.00
15991;DHT22;8100;50.994;4.538;2023-07-16T03:20:39;15.30;1.00
15991;DHT22;8100;50.994;4.538;2023-07-16T03:23:26;15.20;1.00
15991;DHT22;8100;50.994;4.538;2023-07-16T03:26:13;15.20;1.00
15991;DHT22;8100;50.994;4.538;2023-07-16T03:29:02;15.10;1.00
15991;DHT22;8100;50.994;4.538;2023-07-16T03:31:49;15.10;1.00
15991;DHT22;8100;50.994;4.538;2023-07-16T03:34:36;15.00;1.00
15991;DHT22;8100;50.994;4.538;2023-07-16T03:37:23;15.00;1.00
15991;DHT22;8100;50.994;4.538;2023-07-16T03:40:15;15.10;1.00
15991;DHT22;8100;50.994;4.538;2023-07-16T03:43:02;15.00;1.00
15991;DHT22;8100;50.994;4.538;2023-07-16T03:45:51;15.10;1.00
15991;DHT22;8100;50.994;4.538;2023-07-16T03:48:38;15.10;1.00
15991;DHT22;8100;50.994;4.538;2023-07-16T03:51:25;15.20;1.00
15991;DHT22;8100;50.994;4.538;2023-07-16T03:54:12;15.20;1.00
15991;DHT22;8100;50.994;4.538;2023-07-16T03:56:59;15.20;1.00
15991;DHT22;8100;50.994;4.538;2023-07-16T03:59:47;15.20;1.00
15991;DHT22;8100;50.994;4.538;2023-07-16T04:02:35;15.20;1.00
15991;DHT22;8100;50.994;4.538;2023-07-16T04:05:23;15.20;1.00
15991;DHT22;8100;50.994;4.538;2023-07-16T04:08:10;15.30;1.00
15991;DHT22;8100;50.994;4.538;2023-07-16T04:10:57;15.20;1.00
15991;DHT22;8100;50.994;4.538;2023-07-16T04:13:44;15.30;1.00
15991;DHT22;8100;50.994;4.538;2023-07-16T04:16:32;15.40;1.00
15991;DHT22;8100;50.994;4.538;2023-07-16T04:19:20;15.40;1.00
15991;DHT22;8100;50.994;4.538;2023-07-16T04:22:07;15.30;1.00
15991;DHT22;8100;50.994;4.538;2023-07-16T04:24:55;15.20;1.00
15991;DHT22;8100;50.994;4.538;2023-07-16T04:27:42;15.20;1.00
15991;DHT22;8100;50.994;4.538;2023-07-16T04:30:29;15.20;1.00
15991;DHT22;8100;50.994;4.538;2023-07-16T04:33:17;15.20;1.00
15991;DHT22;8100;50.994;4.538;2023-07-16T04:36:06;15.20;1.00
15991;DHT22;8100;50.994;4.538;2023-07-16T04:38:53;15.30;1.00
15991;DHT22;8100;50.994;4.538;2023-07-16T04:41:40;15.40;1.00
15991;DHT22;8100;50.994;4.538;2023-07-16T04:44:28;15.40;1.00
15991;DHT22;8100;50.994;4.538;2023-07-16T04:47:15;15.50;1.00
15991;DHT22;8100;50.994;4.538;2023-07-16T04:50:02;15.50;1.00
15991;DHT22;8100;50.994;4.538;2023-07-16T04:52:51;15.50;1.00
15991;DHT22;8100;50.994;4.538;2023-07-16T04:55:38;15.50;1.00
15991;DHT22;8100;50.994;4.538;2023-07-16T04:58:26;15.50;1.00
15991;DHT22;8100;50.994;4.538;2023-07-16T05:01:13;15.60;1.00
15991;DHT22;8100;50.994;4.538;2023-07-16T05:04:01;15.60;1.00
15991;DHT22;8100;50.994;4.538;2023-07-16T05:06:48;15.70;1.00
15991;DHT22;8100;50.994;4.538;2023-07-16T05:09:36;15.70;1.00
15991;DHT22;8100;50.994;4.538;2023-07-16T05:12:23;15.70;1.00
15991;DHT22;8100;50.994;4.538;2023-07-16T05:15:11;15.80;1.00
15991;DHT22;8100;50.994;4.538;2023-07-16T05:17:58;15.90;1.00
15991;DHT22;8100;50.994;4.538;2023-07-16T05:20:47;15.90;1.00
15991;DHT22;8100;50.994;4.538;2023-07-16T05:23:34;15.90;1.00
15991;DHT22;8100;50.994;4.538;2023-07-16T05:26:23;16.00;1.00
15991;DHT22;8100;50.994;4.538;2023-07-16T05:29:10;16.00;1.00
15991;DHT22;8100;50.994;4.538;2023-07-16T05:31:57;16.10;1.00
15991;DHT22;8100;50.994;4.538;2023-07-16T05:34:44;16.20;1.00
15991;DHT22;8100;50.994;4.538;2023-07-16T05:37:31;16.20;1.00
15991;DHT22;8100;50.994;4.538;2023-07-16T05:40:19;16.30;1.00
15991;DHT22;8100;50.994;4.538;2023-07-16T05:43:07;16.20;1.00
15991;DHT22;8100;50.994;4.538;2023-07-16T05:45:54;16.30;1.00
15991;DHT22;8100;50.994;4.538;2023-07-16T05:48:42;16.30;1.00
15991;DHT22;8100;50.994;4.538;2023-07-16T05:51:29;16.40;1.00
15991;DHT22;8100;50.994;4.538;2023-07-16T05:54:16;16.50;1.00
15991;DHT22;8100;50.994;4.538;2023-07-16T05:57:04;16.50;1.00
15991;DHT22;8100;50.994;4.538;2023-07-16T05:59:53;16.70;1.00
15991;DHT22;8100;50.994;4.538;2023-07-16T06:02:40;16.90;1.00
15991;DHT22;8100;50.994;4.538;2023-07-16T06:05:27;16.90;1.00
15991;DHT22;8100;50.994;4.538;2023-07-16T06:08:18;16.90;1.00
15991;DHT22;8100;50.994;4.538;2023-07-16T06:11:05;17.00;1.00
15991;DHT22;8100;50.994;4.538;2023-07-16T06:13:53;17.10;1.00
15991;DHT22;8100;50.994;4.538;2023-07-16T06:16:42;17.10;1.00
15991;DHT22;8100;50.994;4.538;2023-07-16T06:19:29;17.10;1.00
15991;DHT22;8100;50.994;4.538;2023-07-16T06:22:16;17.10;1.00
15991;DHT22;8100;50.994;4.538;2023-07-16T06:25:04;17.20;1.00
15991;DHT22;8100;50.994;4.538;2023-07-16T06:27:52;17.30;1.00
15991;DHT22;8100;50.994;4.538;2023-07-16T06:30:39;17.20;1.00
15991;DHT22;8100;50.994;4.538;2023-07-16T06:33:27;17.10;1.00
15991;DHT22;8100;50.994;4.538;2023-07-16T06:36:15;17.10;1.00
15991;DHT22;8100;50.994;4.538;2023-07-16T06:39:02;17.10;1.00
15991;DHT22;8100;50.994;4.538;2023-07-16T06:41:50;17.20;1.00
15991;DHT22;8100;50.994;4.538;2023-07-16T06:44:37;17.20;1.00
15991;DHT22;8100;50.994;4.538;2023-07-16T06:47:25;17.30;1.00
15991;DHT22;8100;50.994;4.538;2023-07-16T06:50:13;17.30;1.00
15991;DHT22;8100;50.994;4.538;2023-07-16T06:53:00;17.40;1.00
15991;DHT22;8100;50.994;4.538;2023-07-16T06:55:48;17.40;1.00
15991;DHT22;8100;50.994;4.538;2023-07-16T06:58:35;17.40;1.00
15991;DHT22;8100;50.994;4.538;2023-07-16T07:01:23;17.60;1.00
15991;DHT22;8100;50.994;4.538;2023-07-16T07:04:10;17.60;1.00
15991;DHT22;8100;50.994;4.538;2023-07-16T07:06:59;17.70;1.00
15991;DHT22;8100;50.994;4.538;2023-07-16T07:09:47;17.80;1.00
15991;DHT22;8100;50.994;4.538;2023-07-16T07:12:35;17.90;1.00
15991;DHT22;8100;50.994;4.538;2023-07-16T07:15:23;18.10;1.00
15991;DHT22;8100;50.994;4.538;2023-07-16T07:18:10;18.20;1.00
15991;DHT22;8100;50.994;4.538;2023-07-16T07:20:58;18.40;1.00
15991;DHT22;8100;50.994;4.538;2023-07-16T07:23:46;18.40;1.00
15991;DHT22;8100;50.994;4.538;2023-07-16T07:26:33;18.30;1.00
15991;DHT22;8100;50.994;4.538;2023-07-16T07:29:21;18.20;1.00
15991;DHT22;8100;50.994;4.538;2023-07-16T07:32:08;18.20;1.00
15991;DHT22;8100;50.994;4.538;2023-07-16T07:34:55;18.40;1.00
15991;DHT22;8100;50.994;4.538;2023-07-16T07:37:42;18.30;1.00
15991;DHT22;8100;50.994;4.538;2023-07-16T07:40:31;18.30;1.00
15991;DHT22;8100;50.994;4.538;2023-07-16T07:43:18;18.60;1.00
15991;DHT22;8100;50.994;4.538;2023-07-16T07:46:06;18.50;1.00
15991;DHT22;8100;50.994;4.538;2023-07-16T07:48:53;18.70;1.00
15991;DHT22;8100;50.994;4.538;2023-07-16T07:51:40;19.20;1.00
15991;DHT22;8100;50.994;4.538;2023-07-16T07:54:27;19.00;1.00
15991;DHT22;8100;50.994;4.538;2023-07-16T07:57:16;19.20;99.90
15991;DHT22;8100;50.994;4.538;2023-07-16T08:00:04;19.10;99.90
15991;DHT22;8100;50.994;4.538;2023-07-16T08:02:52;19.20;1.00
15991;DHT22;8100;50.994;4.538;2023-07-16T08:05:39;19.20;99.90
15991;DHT22;8100;50.994;4.538;2023-07-16T08:08:26;19.40;1.00
15991;DHT22;8100;50.994;4.538;2023-07-16T08:11:13;19.60;1.00
15991;DHT22;8100;50.994;4.538;2023-07-16T08:14:02;19.40;1.00
15991;DHT22;8100;50.994;4.538;2023-07-16T08:16:49;19.40;1.00
15991;DHT22;8100;50.994;4.538;2023-07-16T08:19:37;19.40;1.00
15991;DHT22;8100;50.994;4.538;2023-07-16T08:22:24;19.60;1.00
15991;DHT22;8100;50.994;4.538;2023-07-16T08:25:11;19.50;1.00
15991;DHT22;8100;50.994;4.538;2023-07-16T08:27:58;19.30;1.00
15991;DHT22;8100;50.994;4.538;2023-07-16T08:30:48;19.20;1.00
15991;DHT22;8100;50.994;4.538;2023-07-16T08:33:35;19.40;1.00
15991;DHT22;8100;50.994;4.538;2023-07-16T08:36:22;19.50;99.90
15991;DHT22;8100;50.994;4.538;2023-07-16T08:39:09;19.80;1.00
15991;DHT22;8100;50.994;4.538;2023-07-16T08:41:57;19.90;99.90
15991;DHT22;8100;50.994;4.538;2023-07-16T08:44:45;20.00;99.90
15991;DHT22;8100;50.994;4.538;2023-07-16T08:47:34;20.10;1.00
15991;DHT22;8100;50.994;4.538;2023-07-16T08:50:22;20.50;1.00
15991;DHT22;8100;50.994;4.538;2023-07-16T08:53:11;20.80;1.00
15991;DHT22;8100;50.994;4.538;2023-07-16T08:55:58;20.80;1.00
15991;DHT22;8100;50.994;4.538;2023-07-16T08:58:46;20.60;99.90
15991;DHT22;8100;50.994;4.538;2023-07-16T09:01:34;20.30;1.00
15991;DHT22;8100;50.994;4.538;2023-07-16T09:04:22;20.40;1.00
15991;DHT22;8100;50.994;4.538;2023-07-16T09:07:10;20.50;1.00
15991;DHT22;8100;50.994;4.538;2023-07-16T09:09:58;20.30;99.90
15991;DHT22;8100;50.994;4.538;2023-07-16T09:12:46;20.20;99.90
15991;DHT22;8100;50.994;4.538;2023-07-16T09:15:33;20.30;1.00
15991;DHT22;8100;50.994;4.538;2023-07-16T09:18:21;20.10;99.90
15991;DHT22;8100;50.994;4.538;2023-07-16T09:21:10;20.10;1.00
15991;DHT22;8100;50.994;4.538;2023-07-16T09:23:57;20.40;1.00
15991;DHT22;8100;50.994;4.538;2023-07-16T09:26:51;20.60;1.00
15991;DHT22;8100;50.994;4.538;2023-07-16T09:29:39;20.60;99.90
15991;DHT22;8100;50.994;4.538;2023-07-16T09:32:33;20.70;99.90
15991;DHT22;8100;50.994;4.538;2023-07-16T09:35:20;20.30;99.90
15991;DHT22;8100;50.994;4.538;2023-07-16T09:38:09;20.20;99.90
15991;DHT22;8100;50.994;4.538;2023-07-16T09:40:56;20.10;99.90
15991;DHT22;8100;50.994;4.538;2023-07-16T09:43:44;20.10;99.90
15991;DHT22;8100;50.994;4.538;2023-07-16T09:46:31;20.30;99.90
15991;DHT22;8100;50.994;4.538;2023-07-16T09:49:18;20.30;99.90
15991;DHT22;8100;50.994;4.538;2023-07-16T09:52:06;20.20;99.90
15991;DHT22;8100;50.994;4.538;2023-07-16T09:54:55;19.90;99.90
15991;DHT22;8100;50.994;4.538;2023-07-16T09:57:43;19.90;99.90
15991;DHT22;8100;50.994;4.538;2023-07-16T10:00:32;19.80;99.90
15991;DHT22;8100;50.994;4.538;2023-07-16T10:03:21;19.80;99.90
15991;DHT22;8100;50.994;4.538;2023-07-16T10:06:08;19.80;1.00
15991;DHT22;8100;50.994;4.538;2023-07-16T10:08:55;20.00;99.90
15991;DHT22;8100;50.994;4.538;2023-07-16T10:11:44;20.10;99.90
15991;DHT22;8100;50.994;4.538;2023-07-16T10:14:39;20.10;99.90
15991;DHT22;8100;50.994;4.538;2023-07-16T10:17:27;20.30;99.90
15991;DHT22;8100;50.994;4.538;2023-07-16T10:20:14;20.30;99.90
15991;DHT22;8100;50.994;4.538;2023-07-16T10:23:10;20.40;99.90
15991;DHT22;8100;50.994;4.538;2023-07-16T10:25:59;20.20;72.80
15991;DHT22;8100;50.994;4.538;2023-07-16T10:28:48;20.10;99.90
15991;DHT22;8100;50.994;4.538;2023-07-16T10:31:35;20.10;99.90
15991;DHT22;8100;50.994;4.538;2023-07-16T10:34:23;20.30;99.90
15991;DHT22;8100;50.994;4.538;2023-07-16T10:37:11;20.30;99.90
15991;DHT22;8100;50.994;4.538;2023-07-16T10:39:59;20.30;99.90
15991;DHT22;8100;50.994;4.538;2023-07-16T10:42:46;20.10;99.90
15991;DHT22;8100;50.994;4.538;2023-07-16T10:45:35;20.20;99.90
15991;DHT22;8100;50.994;4.538;2023-07-16T10:48:24;20.10;99.90
15991;DHT22;8100;50.994;4.538;2023-07-16T10:51:14;20.40;99.90
15991;DHT22;8100;50.994;4.538;2023-07-16T10:54:01;20.80;99.90
15991;DHT22;8100;50.994;4.538;2023-07-16T10:56:51;20.60;99.90
15991;DHT22;8100;50.994;4.538;2023-07-16T10:59:39;20.60;99.90
15991;DHT22;8100;50.994;4.538;2023-07-16T11:02:28;20.70;95.00
15991;DHT22;8100;50.994;4.538;2023-07-16T11:05:16;20.50;1.00
15991;DHT22;8100;50.994;4.538;2023-07-16T11:08:04;20.60;99.90
15991;DHT22;8100;50.994;4.538;2023-07-16T11:10:55;20.30;77.90
15991;DHT22;8100;50.994;4.538;2023-07-16T11:13:43;20.30;99.90
15991;DHT22;8100;50.994;4.538;2023-07-16T11:16:33;20.20;99.90
15991;DHT22;8100;50.994;4.538;2023-07-16T11:19:22;20.10;99.90
15991;DHT22;8100;50.994;4.538;2023-07-16T11:22:09;20.10;1.00
15991;DHT22;8100;50.994;4.538;2023-07-16T11:24:57;20.50;1.00
15991;DHT22;8100;50.994;4.538;2023-07-16T11:27:44;20.80;99.90
15991;DHT22;8100;50.994;4.538;2023-07-16T11:30:31;21.00;99.90
15991;DHT22;8100;50.994;4.538;2023-07-16T11:33:19;21.10;99.90
15991;DHT22;8100;50.994;4.538;2023-07-16T11:36:07;21.20;99.90
15991;DHT22;8100;50.994;4.538;2023-07-16T11:38:55;21.10;99.90
15991;DHT22;8100;50.994;4.538;2023-07-16T11:41:42;21.30;8.00
15991;DHT22;8100;50.994;4.538;2023-07-16T11:44:33;21.30;1.00
15991;DHT22;8100;50.994;4.538;2023-07-16T11:47:20;21.70;1.00
15991;DHT22;8100;50.994;4.538;2023-07-16T11:50:08;21.70;1.00
15991;DHT22;8100;50.994;4.538;2023-07-16T11:52:59;21.70;1.00
15991;DHT22;8100;50.994;4.538;2023-07-16T11:55:47;22.00;1.00
15991;DHT22;8100;50.994;4.538;2023-07-16T11:58:34;22.10;1.00
15991;DHT22;8100;50.994;4.538;2023-07-16T12:01:21;22.30;1.00
15991;DHT22;8100;50.994;4.538;2023-07-16T12:04:08;22.00;1.00
15991;DHT22;8100;50.994;4.538;2023-07-16T12:06:55;22.00;1.00
15991;DHT22;8100;50.994;4.538;2023-07-16T12:09:44;21.80;1.00
15991;DHT22;8100;50.994;4.538;2023-07-16T12:12:31;21.70;1.00
15991;DHT22;8100;50.994;4.538;2023-07-16T12:15:19;21.80;1.00
15991;DHT22;8100;50.994;4.538;2023-07-16T12:18:06;22.30;1.00
15991;DHT22;8100;50.994;4.538;2023-07-16T12:20:53;22.60;1.00
15991;DHT22;8100;50.994;4.538;2023-07-16T12:23:40;22.90;1.00
15991;DHT22;8100;50.994;4.538;2023-07-16T12:26:29;22.60;1.00
15991;DHT22;8100;50.994;4.538;2023-07-16T12:29:16;22.80;1.00
15991;DHT22;8100;50.994;4.538;2023-07-16T12:32:04;22.40;1.00
15991;DHT22;8100;50.994;4.538;2023-07-16T12:34:51;22.50;1.00
15991;DHT22;8100;50.994;4.538;2023-07-16T12:37:40;22.30;1.00
15991;DHT22;8100;50.994;4.538;2023-07-16T12:40:29;22.20;1.00
15991;DHT22;8100;50.994;4.538;2023-07-16T12:43:18;22.30;1.00
15991;DHT22;8100;50.994;4.538;2023-07-16T12:46:06;21.90;1.00
15991;DHT22;8100;50.994;4.538;2023-07-16T12:48:53;21.60;1.00
15991;DHT22;8100;50.994;4.538;2023-07-16T12:51:40;21.20;1.00
15991;DHT22;8100;50.994;4.538;2023-07-16T12:54:28;21.10;1.00
15991;DHT22;8100;50.994;4.538;2023-07-16T12:57:16;20.80;1.00
15991;DHT22;8100;50.994;4.538;2023-07-16T13:00:06;20.20;1.00
15991;DHT22;8100;50.994;4.538;2023-07-16T13:02:55;20.50;1.00
15991;DHT22;8100;50.994;4.538;2023-07-16T13:05:43;21.20;18.20
15991;DHT22;8100;50.994;4.538;2023-07-16T13:08:31;22.20;1.00
15991;DHT22;8100;50.994;4.538;2023-07-16T13:11:18;22.70;1.00
15991;DHT22;8100;50.994;4.538;2023-07-16T13:14:05;23.20;1.00
15991;DHT22;8100;50.994;4.538;2023-07-16T13:16:54;23.40;1.00
15991;DHT22;8100;50.994;4.538;2023-07-16T13:19:41;23.30;1.00
15991;DHT22;8100;50.994;4.538;2023-07-16T13:22:28;23.30;1.00
15991;DHT22;8100;50.994;4.538;2023-07-16T13:25:15;23.30;1.00
15991;DHT22;8100;50.994;4.538;2023-07-16T13:28:03;22.90;1.00
15991;DHT22;8100;50.994;4.538;2023-07-16T13:30:50;22.80;1.00
15991;DHT22;8100;50.994;4.538;2023-07-16T13:33:39;22.50;99.90
15991;DHT22;8100;50.994;4.538;2023-07-16T13:36:26;22.30;99.90
15991;DHT22;8100;50.994;4.538;2023-07-16T13:39:13;22.10;99.90
15991;DHT22;8100;50.994;4.538;2023-07-16T13:42:00;22.00;99.90
15991;DHT22;8100;50.994;4.538;2023-07-16T13:44:47;21.90;99.90
15991;DHT22;8100;50.994;4.538;2023-07-16T13:47:35;21.70;99.90
15991;DHT22;8100;50.994;4.538;2023-07-16T13:50:23;21.60;99.90
15991;DHT22;8100;50.994;4.538;2023-07-16T13:53:10;21.40;99.90
15991;DHT22;8100;50.994;4.538;2023-07-16T13:55:57;21.30;99.90
15991;DHT22;8100;50.994;4.538;2023-07-16T13:58:45;21.40;99.90
15991;DHT22;8100;50.994;4.538;2023-07-16T14:01:32;21.40;99.90
15991;DHT22;8100;50.994;4.538;2023-07-16T14:04:20;21.50;99.90
15991;DHT22;8100;50.994;4.538;2023-07-16T14:07:08;21.50;99.90
15991;DHT22;8100;50.994;4.538;2023-07-16T14:09:56;21.50;99.90
15991;DHT22;8100;50.994;4.538;2023-07-16T14:12:43;21.70;99.90
15991;DHT22;8100;50.994;4.538;2023-07-16T14:15:30;22.40;99.90
15991;DHT22;8100;50.994;4.538;2023-07-16T14:18:17;22.20;99.90
15991;DHT22;8100;50.994;4.538;2023-07-16T14:21:04;22.00;99.90
15991;DHT22;8100;50.994;4.538;2023-07-16T14:23:53;21.90;99.90
15991;DHT22;8100;50.994;4.538;2023-07-16T14:26:40;22.00;99.90
15991;DHT22;8100;50.994;4.538;2023-07-16T14:29:28;22.50;99.90
15991;DHT22;8100;50.994;4.538;2023-07-16T14:32:16;23.40;99.90
15991;DHT22;8100;50.994;4.538;2023-07-16T14:35:04;23.50;99.90
15991;DHT22;8100;50.994;4.538;2023-07-16T14:37:51;23.40;99.90
15991;DHT22;8100;50.994;4.538;2023-07-16T14:40:40;23.00;16.40
15991;DHT22;8100;50.994;4.538;2023-07-16T14:43:28;22.80;76.40
15991;DHT22;8100;50.994;4.538;2023-07-16T14:46:16;22.60;1.00
15991;DHT22;8100;50.994;4.538;2023-07-16T14:49:03;22.70;1.00
15991;DHT22;8100;50.994;4.538;2023-07-16T14:51:51;22.50;1.00
15991;DHT22;8100;50.994;4.538;2023-07-16T14:54:38;22.70;1.00
15991;DHT22;8100;50.994;4.538;2023-07-16T14:57:26;22.80;1.00
15991;DHT22;8100;50.994;4.538;2023-07-16T15:00:14;22.70;1.00
15991;DHT22;8100;50.994;4.538;2023-07-16T15:03:03;22.90;1.00
15991;DHT22;8100;50.994;4.538;2023-07-16T15:05:55;22.90;1.00
15991;DHT22;8100;50.994;4.538;2023-07-16T15:08:43;23.00;1.00
15991;DHT22;8100;50.994;4.538;2023-07-16T15:11:30;22.90;1.00
15991;DHT22;8100;50.994;4.538;2023-07-16T15:14:21;22.70;1.00
15991;DHT22;8100;50.994;4.538;2023-07-16T15:17:08;22.80;1.00
15991;DHT22;8100;50.994;4.538;2023-07-16T15:19:55;23.30;1.00
15991;DHT22;8100;50.994;4.538;2023-07-16T15:22:43;23.50;1.00
15991;DHT22;8100;50.994;4.538;2023-07-16T15:25:30;23.70;1.00
15991;DHT22;8100;50.994;4.538;2023-07-16T15:28:18;23.70;1.00
15991;DHT22;8100;50.994;4.538;2023-07-16T15:31:06;23.70;1.00
15991;DHT22;8100;50.994;4.538;2023-07-16T15:33:54;23.90;1.00
15991;DHT22;8100;50.994;4.538;2023-07-16T15:36:41;23.90;1.00
15991;DHT22;8100;50.994;4.538;2023-07-16T15:39:28;25.80;1.00
15991;DHT22;8100;50.994;4.538;2023-07-16T15:42:16;26.90;4.70
15991;DHT22;8100;50.994;4.538;2023-07-16T15:45:05;26.80;8.00
15991;DHT22;8100;50.994;4.538;2023-07-16T15:47:56;25.60;1.00
15991;DHT22;8100;50.994;4.538;2023-07-16T15:50:44;25.30;1.00
15991;DHT22;8100;50.994;4.538;2023-07-16T15:53:31;24.80;1.00
15991;DHT22;8100;50.994;4.538;2023-07-16T15:56:18;24.60;1.00
15991;DHT22;8100;50.994;4.538;2023-07-16T15:59:06;24.30;1.00
15991;DHT22;8100;50.994;4.538;2023-07-16T16:01:53;24.20;1.00
15991;DHT22;8100;50.994;4.538;2023-07-16T16:04:41;24.70;1.00
15991;DHT22;8100;50.994;4.538;2023-07-16T16:07:29;25.30;1.00
15991;DHT22;8100;50.994;4.538;2023-07-16T16:10:16;25.50;1.00
15991;DHT22;8100;50.994;4.538;2023-07-16T16:13:03;25.30;1.00
15991;DHT22;8100;50.994;4.538;2023-07-16T16:15:50;25.10;1.00
15991;DHT22;8100;50.994;4.538;2023-07-16T16:18:37;24.00;1.00
15991;DHT22;8100;50.994;4.538;2023-07-16T16:21:26;23.40;1.00
15991;DHT22;8100;50.994;4.538;2023-07-16T16:24:13;24.30;1.00
15991;DHT22;8100;50.994;4.538;2023-07-16T16:27:00;24.90;1.00
15991;DHT22;8100;50.994;4.538;2023-07-16T16:29:48;24.00;1.00
15991;DHT22;8100;50.994;4.538;2023-07-16T16:32:35;23.30;1.00
15991;DHT22;8100;50.994;4.538;2023-07-16T16:35:22;23.00;1.00
15991;DHT22;8100;50.994;4.538;2023-07-16T16:38:11;22.90;1.00
15991;DHT22;8100;50.994;4.538;2023-07-16T16:41:02;22.90;1.00
15991;DHT22;8100;50.994;4.538;2023-07-16T16:43:53;22.80;1.00
15991;DHT22;8100;50.994;4.538;2023-07-16T16:46:40;22.60;1.00
15991;DHT22;8100;50.994;4.538;2023-07-16T16:49:28;22.50;1.00
15991;DHT22;8100;50.994;4.538;2023-07-16T16:52:15;22.30;1.00
15991;DHT22;8100;50.994;4.538;2023-07-16T16:55:05;22.10;1.00
15991;DHT22;8100;50.994;4.538;2023-07-16T16:57:52;21.90;1.00
15991;DHT22;8100;50.994;4.538;2023-07-16T17:00:39;21.90;1.00
15991;DHT22;8100;50.994;4.538;2023-07-16T17:03:26;21.70;1.00
15991;DHT22;8100;50.994;4.538;2023-07-16T17:06:14;21.70;1.00
15991;DHT22;8100;50.994;4.538;2023-07-16T17:09:01;21.70;1.00
15991;DHT22;8100;50.994;4.538;2023-07-16T17:11:50;21.70;1.00
15991;DHT22;8100;50.994;4.538;2023-07-16T17:14:37;21.70;1.00
15991;DHT22;8100;50.994;4.538;2023-07-16T17:17:24;21.70;1.00
15991;DHT22;8100;50.994;4.538;2023-07-16T17:20:12;21.90;1.00
15991;DHT22;8100;50.994;4.538;2023-07-16T17:22:59;22.00;1.00
15991;DHT22;8100;50.994;4.538;2023-07-16T17:25:47;22.00;1.00
15991;DHT22;8100;50.994;4.538;2023-07-16T17:28:35;22.10;1.00
15991;DHT22;8100;50.994;4.538;2023-07-16T17:31:23;22.20;1.00
15991;DHT22;8100;50.994;4.538;2023-07-16T17:34:10;22.20;1.00
15991;DHT22;8100;50.994;4.538;2023-07-16T17:36:58;22.20;1.00
15991;DHT22;8100;50.994;4.538;2023-07-16T17:39:45;22.30;1.00
15991;DHT22;8100;50.994;4.538;2023-07-16T17:42:34;22.40;1.00
15991;DHT22;8100;50.994;4.538;2023-07-16T17:45:22;22.40;59.70
15991;DHT22;8100;50.994;4.538;2023-07-16T17:48:09;22.30;30.60
15991;DHT22;8100;50.994;4.538;2023-07-16T17:50:57;22.20;1.00
15991;DHT22;8100;50.994;4.538;2023-07-16T17:53:44;22.00;1.00
15991;DHT22;8100;50.994;4.538;2023-07-16T17:56:32;21.80;1.00
15991;DHT22;8100;50.994;4.538;2023-07-16T17:59:22;21.70;13.60
15991;DHT22;8100;50.994;4.538;2023-07-16T18:02:11;21.60;38.30
15991;DHT22;8100;50.994;4.538;2023-07-16T18:04:58;21.40;71.10
15991;DHT22;8100;50.994;4.538;2023-07-16T18:07:45;21.20;99.90